Time;durP1;ratioP1;P1;durP2;ratioP2;P2;SDS_P1;SDS_P2;PMS_P1;PMS_P2;Temp;Humidity;BMP_temperature;BMP_pressure;BME280_temperature;BME280_humidity;BME280_pressure;Samples;Min_cycle;Max_cycle;Signal;HPM_P1;HPM_P2
2021/08/25 00:00:26;;;;;;;;;10.00;8.50;;;;;17.14;53.50;101961.31;4951512;28;45583;-65
2021/08/25 00:02:52;;;;;;;;;11.00;9.00;;;;;17.10;53.91;101958.09;4951925;28;45459;-70
2021/08/25 00:05:17;;;;;;;;;8.00;7.00;;;;;17.08;53.42;101962.75;4952066;28;45429;-68
2021/08/25 00:07:43;;;;;;;;;6.50;6.50;;;;;17.07;53.59;101952.25;4954074;28;45657;-70
2021/08/25 00:10:09;;;;;;;;;8.75;5.75;;;;;17.05;53.43;101960.44;4951357;28;45584;-73
2021/08/25 00:12:34;;;;;;;;;11.00;8.00;;;;;17.04;53.86;101956.09;4958241;28;45464;-68
2021/08/25 00:14:59;;;;;;;;;10.00;8.00;;;;;17.02;53.77;101950.06;4948850;28;45407;-73
2021/08/25 00:17:25;;;;;;;;;7.25;7.00;;;;;17.02;53.55;101954.59;4951332;28;45422;-65
2021/08/25 00:19:50;;;;;;;;;8.25;7.75;;;;;17.00;53.80;101951.22;4951420;28;45580;-68
2021/08/25 00:22:16;;;;;;;;;10.00;8.00;;;;;16.97;53.81;101949.72;4948699;28;45650;-71
2021/08/25 00:24:42;;;;;;;;;10.50;8.75;;;;;16.94;53.94;101942.88;4948887;28;45424;-70
2021/08/25 00:27:08;;;;;;;;;7.25;7.25;;;;;16.93;54.09;101941.19;4947493;28;45585;-70
2021/08/25 00:29:34;;;;;;;;;8.75;8.75;;;;;16.91;53.87;101945.00;4949265;28;45500;-73
2021/08/25 00:32:00;;;;;;;;;7.00;7.00;;;;;16.89;53.86;101945.19;4933713;28;45625;-69
2021/08/25 00:34:26;;;;;;;;;7.00;7.00;;;;;16.88;54.04;101942.69;4948464;28;46081;-72
2021/08/25 00:36:51;;;;;;;;;7.25;7.25;;;;;16.85;54.41;101932.31;4947441;28;45548;-71
2021/08/25 00:39:17;;;;;;;;;12.75;7.00;;;;;16.83;54.20;101935.16;4953190;28;45634;-66
2021/08/25 00:41:42;;;;;;;;;7.00;6.00;;;;;16.80;54.43;101931.97;4953565;28;45505;-68
2021/08/25 00:44:08;;;;;;;;;7.00;6.25;;;;;16.79;54.57;101931.16;4951532;28;46206;-70
2021/08/25 00:46:36;;;;;;;;;8.75;7.00;;;;;16.78;54.64;101924.13;4949508;28;45460;-65
2021/08/25 00:49:01;;;;;;;;;6.25;6.25;;;;;16.77;54.66;101920.59;4946279;28;45438;-66
2021/08/25 00:51:26;;;;;;;;;10.00;7.00;;;;;16.75;54.58;101924.41;4946440;28;45681;-67
2021/08/25 00:53:52;;;;;;;;;7.00;7.00;;;;;16.74;54.69;101922.72;4950463;28;46105;-69
2021/08/25 00:56:19;;;;;;;;;6.50;6.50;;;;;16.73;54.95;101918.41;4951338;28;45717;-71
2021/08/25 00:58:45;;;;;;;;;8.00;6.25;;;;;16.71;54.99;101917.72;4959387;28;45424;-68
2021/08/25 01:01:25;;;;;;;;;6.50;6.00;;;;;16.68;54.79;101916.22;4956378;28;46992;-71
2021/08/25 01:03:56;;;;;;;;;9.00;7.00;;;;;16.66;54.97;101912.03;4951681;28;46178;-73
2021/08/25 01:06:24;;;;;;;;;7.00;7.00;;;;;16.65;55.14;101910.38;4948102;28;45652;-69
2021/08/25 01:08:49;;;;;;;;;6.75;6.00;;;;;16.63;55.25;101915.84;4949858;28;45443;-66
2021/08/25 01:11:15;;;;;;;;;5.00;5.00;;;;;16.62;55.25;101905.34;4958674;28;45456;-70
2021/08/25 01:13:41;;;;;;;;;7.00;5.25;;;;;16.62;54.79;101908.03;4946618;28;45398;-67
2021/08/25 01:16:07;;;;;;;;;6.00;5.75;;;;;16.62;55.08;101913.38;4948659;28;45477;-70
2021/08/25 01:18:33;;;;;;;;;6.50;6.50;;;;;16.59;55.32;101913.66;4954375;28;45772;-66
2021/08/25 01:21:04;;;;;;;;;5.00;5.00;;;;;16.57;55.53;101908.50;4948354;28;45477;-71
2021/08/25 01:23:32;;;;;;;;;6.25;6.00;;;;;16.56;55.15;101912.16;4951445;28;46517;-65
2021/08/25 01:26:00;;;;;;;;;7.75;5.75;;;;;16.55;55.30;101905.16;4950341;28;45552;-68
2021/08/25 01:28:28;;;;;;;;;7.00;6.25;;;;;16.53;55.76;101910.63;4948750;28;45663;-70
2021/08/25 01:30:54;;;;;;;;;6.00;6.00;;;;;16.52;55.61;101895.63;4948463;28;45491;-67
2021/08/25 01:33:27;;;;;;;;;7.00;6.00;;;;;16.51;55.41;101899.28;4949122;28;46311;-66
2021/08/25 01:35:53;;;;;;;;;5.50;5.00;;;;;16.49;55.85;101906.63;4958693;28;45488;-65
2021/08/25 01:38:44;;;;;;;;;7.25;6.50;;;;;16.49;56.11;101905.78;4964160;28;45577;-69
2021/08/25 01:41:10;;;;;;;;;9.00;6.75;;;;;16.47;55.89;101907.78;4939091;28;45400;-67
2021/08/25 01:43:35;;;;;;;;;10.00;7.00;;;;;16.45;55.86;101899.94;4948379;28;45455;-65
2021/08/25 01:46:01;;;;;;;;;8.00;6.25;;;;;16.44;55.98;101908.09;4949566;28;45598;-71
2021/08/25 01:48:27;;;;;;;;;9.50;7.00;;;;;16.44;56.02;101903.59;4947319;28;45488;-71
2021/08/25 01:50:52;;;;;;;;;7.00;6.00;;;;;16.43;56.03;101904.59;4945514;28;45628;-67
2021/08/25 01:53:18;;;;;;;;;6.25;6.25;;;;;16.44;56.15;101903.59;4945661;28;46350;-71
2021/08/25 01:55:44;;;;;;;;;9.25;6.75;;;;;16.44;56.13;101902.75;4948208;28;45541;-70
2021/08/25 01:58:10;;;;;;;;;6.25;6.25;;;;;16.43;56.24;101899.25;4943133;28;45607;-67
2021/08/25 02:00:35;;;;;;;;;6.25;6.25;;;;;16.42;56.30;101889.59;4924587;28;45483;-70
2021/08/25 02:03:01;;;;;;;;;7.00;6.25;;;;;16.42;56.29;101894.06;4941965;28;46008;-74
2021/08/25 02:05:26;;;;;;;;;7.00;7.00;;;;;16.40;56.58;101896.91;4943525;28;45531;-70
2021/08/25 02:07:51;;;;;;;;;6.75;6.00;;;;;16.39;56.46;101897.06;4948806;28;45467;-70
2021/08/25 02:10:17;;;;;;;;;5.75;5.50;;;;;16.38;56.66;101896.22;4949382;28;45421;-73
2021/08/25 02:12:42;;;;;;;;;7.25;7.25;;;;;16.36;56.75;101887.53;4945087;28;45948;-67
2021/08/25 02:15:08;;;;;;;;;9.00;8.00;;;;;16.36;57.01;101892.06;4947118;28;45629;-71
2021/08/25 02:17:34;;;;;;;;;8.75;6.75;;;;;16.33;57.03;101885.19;4951587;28;45485;-70
2021/08/25 02:19:59;;;;;;;;;6.00;4.50;;;;;16.32;56.80;101884.38;4943417;28;45467;-66
2021/08/25 02:22:24;;;;;;;;;6.75;6.75;;;;;16.33;57.09;101879.88;4950557;28;46454;-70
2021/08/25 02:24:50;;;;;;;;;7.50;6.25;;;;;16.31;57.38;101881.84;4949459;28;61276;-65
2021/08/25 02:27:15;;;;;;;;;8.25;6.00;;;;;16.29;57.41;101878.50;4951331;28;45428;-73
2021/08/25 02:29:40;;;;;;;;;9.75;6.75;;;;;16.28;57.29;101879.50;4936733;28;45980;-65
2021/08/25 02:32:06;;;;;;;;;11.75;8.00;;;;;16.27;57.56;101885.81;4973252;28;47199;-68
2021/08/25 02:34:31;;;;;;;;;8.00;5.75;;;;;16.24;57.29;101881.66;4946603;28;45596;-67
2021/08/25 02:36:57;;;;;;;;;7.75;7.25;;;;;16.23;57.55;101882.66;4949030;28;45528;-74
2021/08/25 02:39:22;;;;;;;;;9.00;7.50;;;;;16.19;57.50;101877.78;4949056;28;45512;-73
2021/08/25 02:41:48;;;;;;;;;7.00;6.00;;;;;16.19;57.49;101885.78;4950506;28;46988;-65
2021/08/25 02:44:13;;;;;;;;;9.00;7.50;;;;;16.17;57.66;101885.97;4960770;28;45686;-71
2021/08/25 02:46:38;;;;;;;;;7.25;7.25;;;;;16.12;57.68;101881.09;4946477;28;45531;-73
2021/08/25 02:49:04;;;;;;;;;8.25;6.50;;;;;16.11;57.57;101884.75;4955635;28;45526;-68
2021/08/25 02:51:29;;;;;;;;;7.75;6.50;;;;;16.09;58.01;101878.72;4942081;28;45654;-67
2021/08/25 02:53:55;;;;;;;;;9.00;7.25;;;;;16.07;58.08;101880.75;4956625;28;45816;-67
2021/08/25 02:56:20;;;;;;;;;8.00;7.00;;;;;16.07;58.36;101879.88;4953341;28;45603;-71
2021/08/25 02:58:45;;;;;;;;;8.75;6.75;;;;;16.04;58.13;101881.03;4951002;28;45644;-73
2021/08/25 03:01:11;;;;;;;;;7.50;7.00;;;;;16.02;58.90;101879.53;4949542;28;45624;-73
2021/08/25 03:03:36;;;;;;;;;8.00;6.50;;;;;15.97;58.35;101877.31;4933903;28;45532;-73
2021/08/25 03:06:02;;;;;;;;;6.00;6.00;;;;;15.94;58.81;101874.16;4947827;28;45499;-70
2021/08/25 03:08:27;;;;;;;;;8.50;7.00;;;;;15.91;58.84;101876.13;4959986;28;45361;-66
2021/08/25 03:10:53;;;;;;;;;7.25;5.75;;;;;15.90;58.99;101881.63;4958908;28;46051;-66
2021/08/25 03:13:18;;;;;;;;;7.00;6.25;;;;;15.87;58.94;101869.47;4950112;28;45689;-70
2021/08/25 03:15:43;;;;;;;;;5.00;5.00;;;;;15.86;59.15;101866.94;4951913;28;46749;-73
2021/08/25 03:18:09;;;;;;;;;8.00;6.50;;;;;15.84;58.99;101874.25;4952161;28;45706;-65
2021/08/25 03:20:34;;;;;;;;;7.25;7.00;;;;;15.81;59.26;101869.22;4954720;28;45586;-66
2021/08/25 03:22:59;;;;;;;;;7.75;7.75;;;;;15.78;59.37;101870.38;4961041;28;45535;-71
2021/08/25 03:25:25;;;;;;;;;7.50;6.00;;;;;15.76;59.47;101866.19;4949904;28;45635;-65
2021/08/25 03:27:50;;;;;;;;;7.25;6.50;;;;;15.74;59.48;101869.00;4947604;28;46523;-65
2021/08/25 03:30:15;;;;;;;;;9.25;7.00;;;;;15.73;59.41;101871.84;4945996;28;45900;-71
2021/08/25 03:32:41;;;;;;;;;9.00;6.25;;;;;15.72;59.85;101867.50;4951064;28;45536;-73
2021/08/25 03:35:07;;;;;;;;;7.00;7.00;;;;;15.68;59.66;101864.28;4960413;28;45591;-66
2021/08/25 03:37:32;;;;;;;;;9.00;7.00;;;;;15.67;60.00;101867.94;4949054;28;45634;-70
2021/08/25 03:39:57;;;;;;;;;8.50;8.00;;;;;15.63;60.12;101859.41;4949185;28;46150;-68
2021/08/25 03:42:23;;;;;;;;;9.75;6.50;;;;;15.63;60.02;101862.09;4947106;28;45895;-66
2021/08/25 03:44:48;;;;;;;;;7.75;7.75;;;;;15.63;59.97;101859.41;4949881;28;45654;-66
2021/08/25 03:47:13;;;;;;;;;9.00;6.00;;;;;15.60;60.52;101862.41;4952424;28;45500;-72
2021/08/25 03:49:39;;;;;;;;;10.25;8.00;;;;;15.58;60.04;101859.06;4955275;28;46294;-66
2021/08/25 03:52:04;;;;;;;;;6.50;6.50;;;;;15.57;60.07;101867.19;4949297;28;45481;-70
2021/08/25 03:54:30;;;;;;;;;11.25;6.25;;;;;15.55;60.36;101864.66;4948675;28;45577;-68
2021/08/25 03:56:56;;;;;;;;;11.50;7.75;;;;;15.53;60.63;101864.00;4949065;28;45541;-71
2021/08/25 03:59:23;;;;;;;;;9.00;8.00;;;;;15.51;60.56;101868.66;4958216;28;45451;-70
2021/08/25 04:01:49;;;;;;;;;8.00;8.00;;;;;15.49;60.39;101860.78;4951736;28;45713;-69
2021/08/25 04:04:16;;;;;;;;;6.00;6.00;;;;;15.47;60.97;101864.59;4950741;28;45448;-72
2021/08/25 04:06:41;;;;;;;;;9.25;7.00;;;;;15.45;60.75;101856.78;4948196;28;45500;-67
2021/08/25 04:09:07;;;;;;;;;9.25;7.00;;;;;15.46;60.89;101857.63;4950835;28;45571;-70
2021/08/25 04:11:33;;;;;;;;;9.00;7.25;;;;;15.44;60.97;101868.41;4958279;28;45521;-72
2021/08/25 04:14:00;;;;;;;;;8.50;7.00;;;;;15.43;61.00;101857.91;4950022;28;45602;-69
2021/08/25 04:16:26;;;;;;;;;7.75;7.00;;;;;15.41;60.93;101859.91;4949106;28;45560;-70
2021/08/25 04:18:51;;;;;;;;;8.00;7.50;;;;;15.38;60.98;101849.53;4949078;28;45354;-73
2021/08/25 04:21:16;;;;;;;;;10.75;8.75;;;;;15.37;61.07;101853.22;4952741;28;46595;-67
2021/08/25 04:23:42;;;;;;;;;9.75;8.00;;;;;15.34;61.59;101856.19;4952383;28;45370;-70
2021/08/25 04:26:08;;;;;;;;;7.00;6.75;;;;;15.33;61.30;101854.50;4952219;28;45397;-71
2021/08/25 04:28:33;;;;;;;;;11.25;9.75;;;;;15.32;61.41;101855.50;4949137;28;45791;-66
2021/08/25 04:30:59;;;;;;;;;7.50;6.75;;;;;15.32;61.51;101860.81;4929338;28;45779;-66
2021/08/25 04:33:25;;;;;;;;;10.75;8.75;;;;;15.29;61.70;101861.13;4947915;28;45650;-66
2021/08/25 04:35:50;;;;;;;;;8.00;8.00;;;;;15.27;61.58;101855.94;4944816;28;45510;-75
2021/08/25 04:38:16;;;;;;;;;8.00;7.00;;;;;15.26;61.31;101854.28;4932252;28;48178;-70
2021/08/25 04:40:41;;;;;;;;;10.00;8.50;;;;;15.26;61.62;101857.78;4947396;28;45556;-71
2021/08/25 04:43:06;;;;;;;;;9.75;7.50;;;;;15.26;61.69;101854.28;4941444;28;45611;-75
2021/08/25 04:45:32;;;;;;;;;8.25;7.00;;;;;15.25;61.53;101856.09;4940876;28;45873;-75
2021/08/25 04:47:58;;;;;;;;;7.25;7.00;;;;;15.24;61.63;101857.09;4938656;28;46926;-70
2021/08/25 04:50:24;;;;;;;;;10.00;8.00;;;;;15.23;61.85;101860.75;4940626;28;45448;-69
2021/08/25 04:52:49;;;;;;;;;11.25;9.00;;;;;15.20;61.65;101855.72;4941806;28;45659;-67
2021/08/25 04:55:15;;;;;;;;;8.00;7.75;;;;;15.20;61.81;101866.38;4934013;28;45657;-67
2021/08/25 04:57:40;;;;;;;;;10.50;8.00;;;;;15.19;61.87;101855.88;4929566;28;48179;-70
2021/08/25 05:00:06;;;;;;;;;9.25;8.00;;;;;15.19;61.98;101859.38;4932447;28;45550;-69
2021/08/25 05:02:32;;;;;;;;;8.00;8.00;;;;;15.17;61.87;101849.88;4934134;28;45728;-66
2021/08/25 05:04:57;;;;;;;;;8.75;7.00;;;;;15.17;61.85;101850.69;4946113;28;45488;-68
2021/08/25 05:07:22;;;;;;;;;10.25;7.75;;;;;15.18;61.99;101854.19;4952153;28;45360;-68
2021/08/25 05:09:48;;;;;;;;;7.25;7.00;;;;;15.17;62.17;101850.69;4941462;28;45401;-75
2021/08/25 05:12:17;;;;;;;;;11.00;8.75;;;;;15.17;62.11;101848.03;4940931;28;45460;-70
2021/08/25 05:14:43;;;;;;;;;11.25;8.00;;;;;15.19;61.83;101853.22;4948715;28;45535;-72
2021/08/25 05:17:08;;;;;;;;;11.00;9.00;;;;;15.20;61.99;101853.06;4940588;28;51866;-66
2021/08/25 05:19:33;;;;;;;;;11.25;7.00;;;;;15.22;62.05;101853.75;4944542;28;45681;-68
2021/08/25 05:21:59;;;;;;;;;8.75;7.50;;;;;15.23;61.98;101859.91;4942458;28;45534;-72
2021/08/25 05:24:24;;;;;;;;;11.50;10.25;;;;;15.24;62.00;101853.59;4953207;28;45504;-74
2021/08/25 05:26:49;;;;;;;;;10.50;8.50;;;;;15.26;61.59;101860.44;4947767;28;45517;-72
2021/08/25 05:29:15;;;;;;;;;11.75;8.25;;;;;15.30;62.11;101858.31;4953108;28;45460;-71
2021/08/25 05:31:40;;;;;;;;;7.50;7.25;;;;;15.33;61.76;101859.81;4955770;28;45532;-73
2021/08/25 05:34:06;;;;;;;;;9.50;8.50;;;;;15.37;61.81;101866.53;4926845;28;45954;-72
2021/08/25 05:36:32;;;;;;;;;13.00;9.00;;;;;15.39;62.00;101865.38;4944547;28;45575;-66
2021/08/25 05:38:57;;;;;;;;;13.25;10.00;;;;;15.42;61.57;101869.56;4930407;28;45847;-70
2021/08/25 05:41:22;;;;;;;;;8.75;8.00;;;;;15.46;61.60;101860.28;4949965;28;45560;-72
2021/08/25 05:43:47;;;;;;;;;9.50;8.75;;;;;15.52;61.57;101864.16;4952197;28;45975;-71
2021/08/25 05:46:13;;;;;;;;;8.25;8.00;;;;;15.54;61.39;101865.66;4961580;28;47013;-68
2021/08/25 05:48:38;;;;;;;;;10.25;9.75;;;;;15.57;61.57;101870.69;4957699;28;45614;-73
2021/08/25 05:51:04;;;;;;;;;10.00;8.75;;;;;15.61;61.32;101864.06;4928447;28;49821;-71
2021/08/25 05:53:29;;;;;;;;;8.75;8.00;;;;;15.64;61.26;101863.75;4955011;28;45616;-72
2021/08/25 05:55:55;;;;;;;;;10.00;8.00;;;;;15.68;61.08;101865.13;4964360;28;46986;-70
2021/08/25 05:58:20;;;;;;;;;9.25;7.75;;;;;15.75;60.90;101869.84;4954759;28;45604;-72
2021/08/25 06:00:45;;;;;;;;;8.00;8.00;;;;;15.81;61.18;101872.72;4949089;28;45838;-70
2021/08/25 06:03:11;;;;;;;;;12.75;10.50;;;;;15.87;60.83;101873.94;4954315;28;45674;-70
2021/08/25 06:05:36;;;;;;;;;12.50;9.75;;;;;15.94;60.68;101874.97;4927937;28;45608;-71
2021/08/25 06:08:02;;;;;;;;;9.75;9.00;;;;;16.02;60.45;101876.84;4964939;28;45482;-66
2021/08/25 06:10:27;;;;;;;;;9.00;9.00;;;;;16.09;60.65;101876.06;4951619;28;45631;-69
2021/08/25 06:12:52;;;;;;;;;9.00;8.75;;;;;16.19;60.63;101877.78;4952499;28;45460;-66
2021/08/25 06:15:18;;;;;;;;;10.25;10.25;;;;;16.27;60.48;101875.16;4952188;28;45450;-66
2021/08/25 06:17:44;;;;;;;;;11.00;9.00;;;;;16.33;60.37;101886.03;4950533;28;46146;-73
2021/08/25 06:20:11;;;;;;;;;8.75;8.50;;;;;16.41;59.97;101885.22;4953289;28;45887;-72
2021/08/25 06:22:36;;;;;;;;;10.00;8.00;;;;;16.49;59.90;101890.63;4951322;28;45596;-68
2021/08/25 06:25:01;;;;;;;;;12.25;10.00;;;;;16.56;59.54;101885.47;4952832;28;45497;-68
2021/08/25 06:27:27;;;;;;;;;9.00;9.00;;;;;16.65;59.51;101884.50;4955496;28;45563;-71
2021/08/25 06:29:52;;;;;;;;;13.25;10.25;;;;;16.72;59.14;101888.19;4949283;28;45507;-67
2021/08/25 06:32:18;;;;;;;;;7.50;7.50;;;;;16.78;59.13;101876.06;4956441;28;45503;-71
2021/08/25 06:34:43;;;;;;;;;11.25;8.75;;;;;16.86;58.82;101872.56;4933833;28;48209;-71
2021/08/25 06:37:08;;;;;;;;;9.50;9.25;;;;;16.88;58.45;101866.06;4943978;28;45516;-67
2021/08/25 06:39:34;;;;;;;;;10.50;9.00;;;;;16.94;58.71;101861.94;4958210;28;45514;-68
2021/08/25 06:42:00;;;;;;;;;10.00;9.50;;;;;17.06;59.01;101865.09;4951134;28;45500;-67
2021/08/25 06:44:25;;;;;;;;;10.50;9.00;;;;;17.18;58.51;101861.13;4953561;28;45579;-71
2021/08/25 06:46:50;;;;;;;;;9.00;8.50;;;;;17.30;58.11;101878.50;4926644;28;45585;-71
2021/08/25 06:49:16;;;;;;;;;11.00;9.25;;;;;17.40;57.81;101873.00;4938903;28;45557;-71
2021/08/25 06:51:42;;;;;;;;;8.50;7.50;;;;;17.48;57.31;101874.81;4938854;28;45532;-67
2021/08/25 06:54:07;;;;;;;;;13.25;9.00;;;;;17.58;57.46;101876.34;4943172;28;46099;-69
2021/08/25 06:56:33;;;;;;;;;12.50;10.25;;;;;17.69;57.40;101872.47;4939889;28;45478;-71
2021/08/25 06:58:58;;;;;;;;;10.50;9.25;;;;;17.79;56.65;101873.13;4944197;28;45460;-69
2021/08/25 07:01:25;;;;;;;;;8.00;8.00;;;;;17.88;56.59;101881.16;4937637;28;45840;-71
2021/08/25 07:03:50;;;;;;;;;8.00;6.75;;;;;17.97;56.54;101882.81;4938877;28;46900;-71
2021/08/25 07:06:15;;;;;;;;;8.75;8.75;;;;;18.04;56.17;101886.50;4938426;28;46057;-71
2021/08/25 07:08:41;;;;;;;;;9.75;9.00;;;;;18.14;55.84;101876.44;4946276;28;45628;-70
2021/08/25 07:11:06;;;;;;;;;13.00;9.00;;;;;18.52;55.59;101883.81;4940030;28;45429;-71
2021/08/25 07:13:32;;;;;;;;;9.50;9.25;;;;;18.99;54.88;101890.97;4936582;28;46354;-73
2021/08/25 07:15:57;;;;;;;;;9.25;9.00;;;;;19.24;53.64;101879.09;4937498;28;46547;-71
2021/08/25 07:18:22;;;;;;;;;8.00;7.00;;;;;19.26;53.31;101882.44;4938010;28;45505;-71
2021/08/25 07:20:48;;;;;;;;;9.75;7.00;;;;;19.16;52.94;101873.78;4944265;28;45579;-67
2021/08/25 07:23:13;;;;;;;;;7.50;6.25;;;;;19.04;52.99;101876.06;4943324;28;46011;-67
2021/08/25 07:25:40;;;;;;;;;8.00;6.25;;;;;19.05;53.64;101877.72;4950693;28;45617;-71
2021/08/25 07:28:06;;;;;;;;;10.50;8.25;;;;;19.11;53.23;101863.63;4947368;28;45391;-70
2021/08/25 07:30:31;;;;;;;;;12.25;10.25;;;;;19.19;52.53;101864.56;4947117;28;45673;-67
2021/08/25 07:32:56;;;;;;;;;40.50;32.50;;;;;19.25;53.52;101859.31;4944441;28;47351;-72
2021/08/25 07:35:23;;;;;;;;;10.50;10.00;;;;;19.41;53.17;101870.91;4945817;28;45738;-72
2021/08/25 07:37:49;;;;;;;;;10.25;8.25;;;;;19.61;53.66;101868.56;4951986;28;46018;-70
2021/08/25 07:40:14;;;;;;;;;8.75;7.00;;;;;19.98;52.13;101860.53;4944792;28;45420;-69
2021/08/25 07:42:39;;;;;;;;;6.50;6.50;;;;;20.40;51.21;101867.09;4953571;28;46290;-71
2021/08/25 07:45:05;;;;;;;;;11.00;9.50;;;;;20.66;50.56;101857.72;4939061;28;46101;-67
2021/08/25 07:47:31;;;;;;;;;11.00;9.25;;;;;20.77;48.91;101869.81;4949790;28;45658;-71
2021/08/25 07:49:56;;;;;;;;;5.75;5.50;;;;;20.80;50.53;101862.22;4943272;28;45627;-70
2021/08/25 07:52:23;;;;;;;;;26.75;25.25;;;;;21.24;49.37;101869.28;4946770;28;52741;-66
2021/08/25 07:54:48;;;;;;;;;9.00;9.00;;;;;21.78;49.42;101862.50;4946760;28;46047;-71
2021/08/25 07:57:14;;;;;;;;;9.75;7.25;;;;;23.48;47.28;101852.75;4950935;28;45521;-67
2021/08/25 07:59:39;;;;;;;;;8.00;8.00;;;;;26.74;39.01;101852.44;4930954;28;45566;-67
2021/08/25 08:02:04;;;;;;;;;11.00;10.75;;;;;29.67;32.39;101843.91;4949258;28;46236;-67
2021/08/25 08:04:30;;;;;;;;;35.00;30.25;;;;;32.03;34.36;101847.00;4952207;28;45445;-70
2021/08/25 08:06:55;;;;;;;;;8.00;8.00;;;;;34.26;31.73;101835.47;4945111;28;45493;-71
2021/08/25 08:09:20;;;;;;;;;9.75;8.75;;;;;36.34;30.16;101846.72;4941724;28;45419;-64
2021/08/25 08:11:46;;;;;;;;;5.50;5.25;;;;;37.90;27.59;101841.84;4947181;28;45758;-67
2021/08/25 08:14:12;;;;;;;;;8.25;6.75;;;;;39.33;25.52;101844.00;4952964;28;45527;-71
2021/08/25 08:16:39;;;;;;;;;8.25;6.00;;;;;40.46;22.47;101837.94;4941038;28;45562;-71
2021/08/25 08:19:17;;;;;;;;;8.00;6.00;;;;;41.42;24.19;101844.94;4940549;28;45511;-68
2021/08/25 08:21:43;;;;;;;;;9.50;8.50;;;;;42.28;21.47;101851.13;4937185;28;46445;-71
2021/08/25 08:24:08;;;;;;;;;7.50;7.25;;;;;42.75;21.45;101862.00;4943729;28;45524;-73
2021/08/25 08:26:33;;;;;;;;;5.00;4.25;;;;;43.37;21.70;101848.25;4942819;28;45925;-73
2021/08/25 08:28:59;;;;;;;;;5.50;5.25;;;;;44.31;20.32;101849.22;4941585;28;45475;-71
2021/08/25 08:31:27;;;;;;;;;7.00;5.00;;;;;44.91;19.49;101852.94;4948694;28;46315;-70
2021/08/25 08:33:52;;;;;;;;;5.25;5.25;;;;;45.18;18.31;101837.31;4937679;28;45440;-67
2021/08/25 08:36:18;;;;;;;;;7.50;6.50;;;;;45.65;18.26;101842.03;4944631;28;45526;-72
2021/08/25 08:38:43;;;;;;;;;6.00;6.00;;;;;46.38;18.40;101839.63;4944856;28;45564;-72
2021/08/25 08:41:08;;;;;;;;;7.50;6.75;;;;;47.13;16.67;101843.81;4950240;28;47162;-69
2021/08/25 08:43:35;;;;;;;;;5.75;5.75;;;;;47.48;16.43;101845.63;4936614;28;45555;-72
2021/08/25 08:46:01;;;;;;;;;5.00;4.00;;;;;47.22;14.82;101837.19;4944517;28;45495;-71
2021/08/25 08:48:28;;;;;;;;;6.00;6.00;;;;;47.00;15.56;101847.97;4942538;28;45750;-72
2021/08/25 08:50:54;;;;;;;;;6.50;6.00;;;;;47.05;15.28;101842.06;4941678;28;45828;-72
2021/08/25 08:53:20;;;;;;;;;7.00;7.00;;;;;47.38;16.18;101837.81;4943151;28;45461;-72
2021/08/25 08:55:45;;;;;;;;;8.75;6.75;;;;;47.96;13.21;101837.50;4943284;28;45541;-73
2021/08/25 08:58:11;;;;;;;;;8.75;8.75;;;;;48.01;15.04;101836.38;4925700;28;45677;-69
2021/08/25 09:00:38;;;;;;;;;7.50;7.50;;;;;48.51;15.00;101836.97;4942028;28;46065;-71
2021/08/25 09:03:18;;;;;;;;;8.50;7.00;;;;;49.05;14.62;101848.72;4942478;28;46752;-71
2021/08/25 09:05:43;;;;;;;;;7.75;7.75;;;;;49.04;14.73;101833.06;4947104;28;45550;-68
2021/08/25 09:08:09;;;;;;;;;8.50;7.00;;;;;49.20;14.24;101838.41;4938845;28;45854;-73
2021/08/25 09:10:38;;;;;;;;;7.50;7.25;;;;;49.20;14.39;101832.81;4942532;28;45420;-74
2021/08/25 09:13:08;;;;;;;;;5.50;5.50;;;;;48.97;13.75;101835.84;4940626;28;46218;-69
2021/08/25 09:15:42;;;;;;;;;7.00;7.00;;;;;48.90;13.96;101828.13;4939777;28;45610;-70
2021/08/25 09:18:11;;;;;;;;;7.25;7.25;;;;;48.56;13.77;101825.44;4938144;28;45663;-66
2021/08/25 09:20:42;;;;;;;;;7.00;5.75;;;;;48.56;13.61;101819.81;4939722;28;45867;-69
2021/08/25 09:23:08;;;;;;;;;13.50;13.50;;;;;48.86;14.00;101822.50;4943795;28;45579;-71
2021/08/25 09:25:34;;;;;;;;;7.75;7.50;;;;;48.76;13.13;101828.81;4932720;28;45439;-72
2021/08/25 09:28:01;;;;;;;;;10.50;7.00;;;;;48.14;12.25;101817.31;4947823;28;45597;-70
2021/08/25 09:30:52;;;;;;;;;7.25;6.50;;;;;46.86;13.27;101820.56;4941996;28;45749;-69
2021/08/25 09:33:18;;;;;;;;;8.00;6.00;;;;;45.82;12.91;101823.25;4946115;28;45386;-70
2021/08/25 09:35:45;;;;;;;;;9.25;6.50;;;;;45.53;14.05;101813.41;4944788;28;45559;-69
2021/08/25 09:38:21;;;;;;;;;7.00;6.25;;;;;45.89;14.46;101815.84;4945133;28;45464;-71
2021/08/25 09:40:49;;;;;;;;;7.25;7.25;;;;;46.08;14.03;101817.06;4943871;28;46233;-74
2021/08/25 09:43:31;;;;;;;;;6.50;6.50;;;;;45.59;14.18;101818.38;4947781;28;45545;-73
2021/08/25 09:46:07;;;;;;;;;8.50;7.50;;;;;45.34;14.67;101809.41;4951507;28;45536;-74
2021/08/25 09:48:38;;;;;;;;;6.00;6.00;;;;;44.73;15.46;101799.44;4959720;28;45646;-75
2021/08/25 09:51:05;;;;;;;;;7.00;7.00;;;;;43.97;15.56;101798.47;4943243;28;45989;-73
2021/08/25 09:53:31;;;;;;;;;5.00;5.00;;;;;43.12;16.11;101798.16;4947518;28;45472;-74
2021/08/25 09:55:56;;;;;;;;;7.00;6.25;;;;;42.19;17.06;101799.59;4954712;28;45849;-75
2021/08/25 09:58:24;;;;;;;;;6.75;6.75;;;;;41.26;17.29;101799.50;4944908;28;45647;-73
2021/08/25 10:00:51;;;;;;;;;6.75;6.50;;;;;40.59;18.62;101787.13;4921829;28;48704;-74
2021/08/25 10:03:17;;;;;;;;;6.00;6.00;;;;;40.30;18.44;101793.34;4946058;28;45526;-75
2021/08/25 10:05:46;;;;;;;;;6.00;5.00;;;;;39.84;18.65;101792.81;4944708;28;45526;-72
2021/08/25 10:08:14;;;;;;;;;5.00;5.00;;;;;39.22;18.47;101787.34;4944665;28;45651;-69
2021/08/25 10:10:40;;;;;;;;;6.00;6.00;;;;;38.58;19.12;101777.41;4946077;28;46164;-67
2021/08/25 10:13:05;;;;;;;;;7.00;7.00;;;;;38.08;20.38;101778.31;4950534;28;45517;-65
2021/08/25 10:15:31;;;;;;;;;7.25;5.75;;;;;37.65;19.67;101786.91;4943618;28;45914;-70
2021/08/25 10:17:57;;;;;;;;;5.00;5.00;;;;;37.20;19.86;101785.88;4946622;28;45687;-69
2021/08/25 10:20:23;;;;;;;;;8.75;6.75;;;;;36.94;21.25;101783.53;4947072;28;46047;-71
2021/08/25 10:22:51;;;;;;;;;4.50;3.00;;;;;36.66;20.83;101771.66;4950645;28;45809;-67
2021/08/25 10:25:16;;;;;;;;;5.25;5.25;;;;;36.38;21.09;101781.72;4955219;28;45635;-69
2021/08/25 10:28:04;;;;;;;;;6.50;6.25;;;;;36.09;21.79;101770.88;4946099;28;45528;-66
2021/08/25 10:30:51;;;;;;;;;6.00;6.00;;;;;36.00;21.29;101775.38;4946195;28;47156;-68
2021/08/25 10:33:17;;;;;;;;;7.00;6.50;;;;;36.02;22.10;101768.47;4941744;28;45507;-71
2021/08/25 10:35:45;;;;;;;;;5.25;5.00;;;;;35.96;21.51;101766.91;4949804;28;45452;-71
2021/08/25 10:38:28;;;;;;;;;4.75;4.00;;;;;35.59;22.01;101763.00;4945368;28;45614;-69
2021/08/25 10:41:00;;;;;;;;;5.75;5.50;;;;;35.48;21.72;101769.69;4944513;28;46516;-70
2021/08/25 10:43:55;;;;;;;;;6.00;6.00;;;;;35.58;22.21;101755.81;4951403;28;45935;-71
2021/08/25 10:46:21;;;;;;;;;7.00;6.00;;;;;35.84;21.95;101755.53;4947850;28;45663;-70
2021/08/25 10:48:56;;;;;;;;;5.00;5.00;;;;;36.02;21.90;101746.47;4939921;28;45614;-67
2021/08/25 10:51:36;;;;;;;;;6.00;6.00;;;;;36.10;22.18;101753.25;4941745;28;45500;-69
2021/08/25 10:54:04;;;;;;;;;6.00;5.00;;;;;36.16;21.89;101758.38;4935783;28;45643;-69
2021/08/25 10:56:42;;;;;;;;;6.25;5.00;;;;;36.27;21.30;101766.47;4951225;28;45592;-68
2021/08/25 10:59:10;;;;;;;;;6.00;6.00;;;;;35.95;21.27;101755.06;4948790;28;45555;-71
2021/08/25 11:01:43;;;;;;;;;6.00;6.00;;;;;35.69;20.80;101748.31;4942256;28;46278;-68
2021/08/25 11:04:19;;;;;;;;;6.25;6.25;;;;;35.65;21.20;101750.00;4946553;28;45791;-70
2021/08/25 11:06:46;;;;;;;;;5.00;5.00;;;;;35.74;21.89;101734.50;4934325;28;45661;-73
2021/08/25 11:09:17;;;;;;;;;8.00;5.00;;;;;35.84;21.37;101736.28;4940363;28;45532;-67
2021/08/25 11:11:51;;;;;;;;;6.50;6.00;;;;;36.12;22.04;101734.53;4946532;28;47149;-69
2021/08/25 11:14:21;;;;;;;;;7.00;6.00;;;;;36.30;21.05;101741.09;4939093;28;46263;-70
2021/08/25 11:16:47;;;;;;;;;5.75;5.75;;;;;36.37;21.21;101725.03;4938555;28;45601;-70
2021/08/25 11:19:25;;;;;;;;;7.00;7.00;;;;;36.44;20.88;101732.91;4939230;28;45957;-67
2021/08/25 11:21:51;;;;;;;;;6.75;6.75;;;;;36.18;21.79;101722.34;4937425;28;45963;-67